sensor_id;sensor_type;location;lat;lon;timestamp;P1;durP1;ratioP1;P2;durP2;ratioP2
51048;SDS011;37084;55.228;36.450;2023-02-24T00:00:11;8.48;;;3.40;;
51048;SDS011;37084;55.228;36.450;2023-02-24T00:03:32;6.45;;;4.22;;
51048;SDS011;37084;55.228;36.450;2023-02-24T00:06:34;7.88;;;3.30;;
51048;SDS011;37084;55.228;36.450;2023-02-24T00:09:37;4.55;;;2.05;;
51048;SDS011;37084;55.228;36.450;2023-02-24T00:12:38;7.65;;;2.88;;
51048;SDS011;37084;55.228;36.450;2023-02-24T00:15:40;9.52;;;4.75;;
51048;SDS011;37084;55.228;36.450;2023-02-24T00:18:41;8.65;;;4.60;;
51048;SDS011;37084;55.228;36.450;2023-02-24T00:21:43;7.90;;;4.60;;
51048;SDS011;37084;55.228;36.450;2023-02-24T00:24:45;6.22;;;4.95;;
51048;SDS011;37084;55.228;36.450;2023-02-24T00:27:46;6.93;;;4.28;;
51048;SDS011;37084;55.228;36.450;2023-02-24T00:30:47;7.18;;;3.30;;
51048;SDS011;37084;55.228;36.450;2023-02-24T00:33:49;8.48;;;4.85;;
51048;SDS011;37084;55.228;36.450;2023-02-24T00:36:50;11.75;;;4.82;;
51048;SDS011;37084;55.228;36.450;2023-02-24T00:39:51;8.27;;;4.70;;
51048;SDS011;37084;55.228;36.450;2023-02-24T00:42:57;7.82;;;3.35;;
51048;SDS011;37084;55.228;36.450;2023-02-24T00:45:58;9.00;;;3.60;;
51048;SDS011;37084;55.228;36.450;2023-02-24T00:49:04;6.93;;;4.10;;
51048;SDS011;37084;55.228;36.450;2023-02-24T00:52:14;7.35;;;3.33;;
51048;SDS011;37084;55.228;36.450;2023-02-24T00:55:19;4.85;;;3.97;;
51048;SDS011;37084;55.228;36.450;2023-02-24T00:58:22;3.50;;;1.90;;
51048;SDS011;37084;55.228;36.450;2023-02-24T01:01:30;7.97;;;3.00;;
51048;SDS011;37084;55.228;36.450;2023-02-24T01:04:34;8.27;;;3.40;;
51048;SDS011;37084;55.228;36.450;2023-02-24T01:07:38;6.22;;;4.13;;
51048;SDS011;37084;55.228;36.450;2023-02-24T01:10:39;7.47;;;3.58;;
51048;SDS011;37084;55.228;36.450;2023-02-24T01:14:07;5.43;;;2.42;;
51048;SDS011;37084;55.228;36.450;2023-02-24T01:17:14;6.25;;;2.38;;
51048;SDS011;37084;55.228;36.450;2023-02-24T01:20:17;7.13;;;4.28;;
51048;SDS011;37084;55.228;36.450;2023-02-24T01:23:19;6.80;;;3.80;;
51048;SDS011;37084;55.228;36.450;2023-02-24T01:26:20;6.63;;;4.55;;
51048;SDS011;37084;55.228;36.450;2023-02-24T01:29:22;3.40;;;2.05;;
51048;SDS011;37084;55.228;36.450;2023-02-24T01:32:25;8.55;;;3.03;;
51048;SDS011;37084;55.228;36.450;2023-02-24T01:35:29;9.25;;;4.22;;
51048;SDS011;37084;55.228;36.450;2023-02-24T01:38:31;5.95;;;4.60;;
51048;SDS011;37084;55.228;36.450;2023-02-24T01:41:32;5.53;;;2.80;;
51048;SDS011;37084;55.228;36.450;2023-02-24T01:47:35;6.53;;;3.08;;
51048;SDS011;37084;55.228;36.450;2023-02-24T01:50:40;7.50;;;3.08;;
51048;SDS011;37084;55.228;36.450;2023-02-24T01:53:43;9.25;;;3.42;;
51048;SDS011;37084;55.228;36.450;2023-02-24T01:56:46;4.28;;;2.28;;
51048;SDS011;37084;55.228;36.450;2023-02-24T01:59:50;4.88;;;3.00;;
51048;SDS011;37084;55.228;36.450;2023-02-24T02:02:54;4.13;;;3.25;;
51048;SDS011;37084;55.228;36.450;2023-02-24T02:06:01;6.25;;;4.30;;
51048;SDS011;37084;55.228;36.450;2023-02-24T02:09:05;7.47;;;4.28;;
51048;SDS011;37084;55.228;36.450;2023-02-24T02:12:08;5.20;;;3.45;;
51048;SDS011;37084;55.228;36.450;2023-02-24T02:15:11;9.02;;;5.13;;
51048;SDS011;37084;55.228;36.450;2023-02-24T02:41:28;10.70;;;3.65;;
51048;SDS011;37084;55.228;36.450;2023-02-24T02:47:49;7.53;;;2.80;;
51048;SDS011;37084;55.228;36.450;2023-02-24T02:50:54;7.15;;;2.88;;
51048;SDS011;37084;55.228;36.450;2023-02-24T02:54:05;9.65;;;3.88;;
51048;SDS011;37084;55.228;36.450;2023-02-24T02:57:12;11.02;;;3.58;;
51048;SDS011;37084;55.228;36.450;2023-02-24T03:00:20;4.68;;;2.75;;
51048;SDS011;37084;55.228;36.450;2023-02-24T03:03:23;7.88;;;4.05;;
51048;SDS011;37084;55.228;36.450;2023-02-24T03:06:33;7.60;;;4.97;;
51048;SDS011;37084;55.228;36.450;2023-02-24T03:09:38;10.40;;;3.70;;
51048;SDS011;37084;55.228;36.450;2023-02-24T03:12:42;8.32;;;3.25;;
51048;SDS011;37084;55.228;36.450;2023-02-24T03:15:47;6.40;;;3.35;;
51048;SDS011;37084;55.228;36.450;2023-02-24T03:18:56;10.05;;;4.13;;
51048;SDS011;37084;55.228;36.450;2023-02-24T03:22:03;7.10;;;4.68;;
51048;SDS011;37084;55.228;36.450;2023-02-24T03:25:12;8.07;;;2.25;;
51048;SDS011;37084;55.228;36.450;2023-02-24T03:28:19;6.03;;;3.92;;
51048;SDS011;37084;55.228;36.450;2023-02-24T03:31:38;6.35;;;4.18;;
51048;SDS011;37084;55.228;36.450;2023-02-24T03:38:05;6.20;;;5.07;;
51048;SDS011;37084;55.228;36.450;2023-02-24T03:41:10;8.35;;;3.95;;
51048;SDS011;37084;55.228;36.450;2023-02-24T03:44:12;11.18;;;5.20;;
51048;SDS011;37084;55.228;36.450;2023-02-24T03:47:15;6.15;;;3.13;;
51048;SDS011;37084;55.228;36.450;2023-02-24T03:50:22;7.68;;;5.15;;
51048;SDS011;37084;55.228;36.450;2023-02-24T03:53:33;9.68;;;3.60;;
51048;SDS011;37084;55.228;36.450;2023-02-24T04:00:36;7.55;;;4.43;;
51048;SDS011;37084;55.228;36.450;2023-02-24T04:04:04;8.10;;;3.55;;
51048;SDS011;37084;55.228;36.450;2023-02-24T04:10:50;7.68;;;4.45;;
51048;SDS011;37084;55.228;36.450;2023-02-24T04:14:08;5.65;;;3.38;;
51048;SDS011;37084;55.228;36.450;2023-02-24T04:20:38;8.85;;;5.45;;
51048;SDS011;37084;55.228;36.450;2023-02-24T04:23:42;8.98;;;3.38;;
51048;SDS011;37084;55.228;36.450;2023-02-24T04:26:44;10.85;;;5.00;;
51048;SDS011;37084;55.228;36.450;2023-02-24T04:29:57;6.38;;;4.03;;
51048;SDS011;37084;55.228;36.450;2023-02-24T04:36:01;3.45;;;2.20;;
51048;SDS011;37084;55.228;36.450;2023-02-24T04:39:08;7.65;;;3.05;;
51048;SDS011;37084;55.228;36.450;2023-02-24T04:42:09;8.07;;;2.65;;
51048;SDS011;37084;55.228;36.450;2023-02-24T04:45:21;4.78;;;2.95;;
51048;SDS011;37084;55.228;36.450;2023-02-24T04:48:30;8.32;;;3.55;;
51048;SDS011;37084;55.228;36.450;2023-02-24T04:51:31;5.22;;;2.42;;
51048;SDS011;37084;55.228;36.450;2023-02-24T04:54:33;6.72;;;3.50;;
51048;SDS011;37084;55.228;36.450;2023-02-24T04:57:35;6.50;;;2.03;;
51048;SDS011;37084;55.228;36.450;2023-02-24T05:00:40;5.35;;;2.70;;
51048;SDS011;37084;55.228;36.450;2023-02-24T05:03:41;10.25;;;3.00;;
51048;SDS011;37084;55.228;36.450;2023-02-24T05:06:43;7.40;;;3.40;;
51048;SDS011;37084;55.228;36.450;2023-02-24T05:09:45;6.32;;;5.03;;
51048;SDS011;37084;55.228;36.450;2023-02-24T05:12:51;7.03;;;5.13;;
51048;SDS011;37084;55.228;36.450;2023-02-24T05:15:54;5.80;;;3.90;;
51048;SDS011;37084;55.228;36.450;2023-02-24T05:18:56;4.90;;;2.22;;
51048;SDS011;37084;55.228;36.450;2023-02-24T05:25:18;5.25;;;1.92;;
51048;SDS011;37084;55.228;36.450;2023-02-24T05:28:20;5.28;;;2.53;;
51048;SDS011;37084;55.228;36.450;2023-02-24T05:31:23;10.18;;;4.25;;
51048;SDS011;37084;55.228;36.450;2023-02-24T05:34:28;8.85;;;3.78;;
51048;SDS011;37084;55.228;36.450;2023-02-24T05:37:30;5.88;;;2.85;;
51048;SDS011;37084;55.228;36.450;2023-02-24T05:40:33;5.65;;;1.73;;
51048;SDS011;37084;55.228;36.450;2023-02-24T05:43:35;7.53;;;3.10;;
51048;SDS011;37084;55.228;36.450;2023-02-24T05:46:39;8.77;;;2.90;;
51048;SDS011;37084;55.228;36.450;2023-02-24T05:49:43;7.00;;;3.50;;
51048;SDS011;37084;55.228;36.450;2023-02-24T05:52:47;7.03;;;4.43;;
51048;SDS011;37084;55.228;36.450;2023-02-24T05:55:48;6.85;;;3.25;;
51048;SDS011;37084;55.228;36.450;2023-02-24T05:58:51;8.18;;;3.33;;
51048;SDS011;37084;55.228;36.450;2023-02-24T06:02:03;10.98;;;4.45;;
51048;SDS011;37084;55.228;36.450;2023-02-24T06:05:09;14.48;;;4.82;;
51048;SDS011;37084;55.228;36.450;2023-02-24T06:08:24;13.40;;;4.65;;
51048;SDS011;37084;55.228;36.450;2023-02-24T06:11:26;5.15;;;2.30;;
51048;SDS011;37084;55.228;36.450;2023-02-24T06:14:27;8.15;;;3.42;;
51048;SDS011;37084;55.228;36.450;2023-02-24T06:17:29;8.85;;;3.65;;
51048;SDS011;37084;55.228;36.450;2023-02-24T06:20:30;12.30;;;4.18;;
51048;SDS011;37084;55.228;36.450;2023-02-24T06:23:33;14.98;;;5.28;;
51048;SDS011;37084;55.228;36.450;2023-02-24T06:26:34;9.45;;;5.85;;
51048;SDS011;37084;55.228;36.450;2023-02-24T06:29:37;9.20;;;4.95;;
51048;SDS011;37084;55.228;36.450;2023-02-24T06:32:38;6.78;;;4.05;;
51048;SDS011;37084;55.228;36.450;2023-02-24T06:35:39;10.73;;;4.07;;
51048;SDS011;37084;55.228;36.450;2023-02-24T06:38:42;10.48;;;4.00;;
51048;SDS011;37084;55.228;36.450;2023-02-24T06:41:47;7.82;;;5.93;;
51048;SDS011;37084;55.228;36.450;2023-02-24T06:44:49;10.25;;;3.95;;
51048;SDS011;37084;55.228;36.450;2023-02-24T06:47:50;3.47;;;2.03;;
51048;SDS011;37084;55.228;36.450;2023-02-24T06:50:52;9.13;;;3.83;;
51048;SDS011;37084;55.228;36.450;2023-02-24T06:53:55;8.07;;;3.13;;
51048;SDS011;37084;55.228;36.450;2023-02-24T06:56:57;7.72;;;3.45;;
51048;SDS011;37084;55.228;36.450;2023-02-24T06:59:59;11.95;;;4.38;;
51048;SDS011;37084;55.228;36.450;2023-02-24T07:03:16;8.77;;;3.92;;
51048;SDS011;37084;55.228;36.450;2023-02-24T07:06:17;8.60;;;4.00;;
51048;SDS011;37084;55.228;36.450;2023-02-24T07:09:25;9.73;;;4.38;;
51048;SDS011;37084;55.228;36.450;2023-02-24T07:12:26;9.02;;;4.40;;
51048;SDS011;37084;55.228;36.450;2023-02-24T07:15:28;9.02;;;3.65;;
51048;SDS011;37084;55.228;36.450;2023-02-24T07:18:32;11.43;;;5.28;;
51048;SDS011;37084;55.228;36.450;2023-02-24T07:21:36;13.27;;;4.85;;
51048;SDS011;37084;55.228;36.450;2023-02-24T07:24:43;12.68;;;4.43;;
51048;SDS011;37084;55.228;36.450;2023-02-24T07:27:45;15.68;;;5.18;;
51048;SDS011;37084;55.228;36.450;2023-02-24T07:30:47;15.07;;;5.60;;
51048;SDS011;37084;55.228;36.450;2023-02-24T07:33:48;11.73;;;5.32;;
51048;SDS011;37084;55.228;36.450;2023-02-24T07:36:53;8.45;;;3.45;;
51048;SDS011;37084;55.228;36.450;2023-02-24T07:39:55;9.52;;;5.68;;
51048;SDS011;37084;55.228;36.450;2023-02-24T07:42:56;18.17;;;6.93;;
51048;SDS011;37084;55.228;36.450;2023-02-24T07:46:04;6.78;;;3.45;;
51048;SDS011;37084;55.228;36.450;2023-02-24T07:49:13;9.43;;;4.63;;
51048;SDS011;37084;55.228;36.450;2023-02-24T07:52:19;8.52;;;3.97;;
51048;SDS011;37084;55.228;36.450;2023-02-24T07:55:20;15.50;;;5.05;;
51048;SDS011;37084;55.228;36.450;2023-02-24T07:58:25;13.20;;;7.47;;
51048;SDS011;37084;55.228;36.450;2023-02-24T08:01:29;9.68;;;4.00;;
51048;SDS011;37084;55.228;36.450;2023-02-24T08:04:41;10.43;;;4.35;;
51048;SDS011;37084;55.228;36.450;2023-02-24T08:07:49;13.43;;;4.72;;
51048;SDS011;37084;55.228;36.450;2023-02-24T08:10:51;11.65;;;4.05;;
51048;SDS011;37084;55.228;36.450;2023-02-24T08:14:03;13.43;;;5.32;;
51048;SDS011;37084;55.228;36.450;2023-02-24T08:17:13;9.00;;;4.53;;
51048;SDS011;37084;55.228;36.450;2023-02-24T08:20:20;13.32;;;5.45;;
51048;SDS011;37084;55.228;36.450;2023-02-24T08:23:21;12.00;;;5.53;;
51048;SDS011;37084;55.228;36.450;2023-02-24T08:26:23;9.93;;;3.70;;
51048;SDS011;37084;55.228;36.450;2023-02-24T08:29:30;14.13;;;4.40;;
51048;SDS011;37084;55.228;36.450;2023-02-24T08:32:40;12.35;;;5.85;;
51048;SDS011;37084;55.228;36.450;2023-02-24T08:35:43;10.65;;;4.63;;
51048;SDS011;37084;55.228;36.450;2023-02-24T08:38:44;12.85;;;5.47;;
51048;SDS011;37084;55.228;36.450;2023-02-24T08:41:51;16.25;;;6.47;;
51048;SDS011;37084;55.228;36.450;2023-02-24T08:44:54;11.15;;;5.15;;
51048;SDS011;37084;55.228;36.450;2023-02-24T08:47:58;15.30;;;6.35;;
51048;SDS011;37084;55.228;36.450;2023-02-24T08:51:19;14.05;;;4.13;;
51048;SDS011;37084;55.228;36.450;2023-02-24T08:54:28;15.27;;;5.32;;
51048;SDS011;37084;55.228;36.450;2023-02-24T08:57:31;13.50;;;5.25;;
51048;SDS011;37084;55.228;36.450;2023-02-24T09:00:36;13.55;;;5.63;;
51048;SDS011;37084;55.228;36.450;2023-02-24T09:03:55;16.15;;;6.05;;
51048;SDS011;37084;55.228;36.450;2023-02-24T09:06:57;10.90;;;4.93;;
51048;SDS011;37084;55.228;36.450;2023-02-24T09:10:15;18.35;;;6.35;;
51048;SDS011;37084;55.228;36.450;2023-02-24T09:13:17;14.10;;;5.63;;
51048;SDS011;37084;55.228;36.450;2023-02-24T09:16:20;17.35;;;7.97;;
51048;SDS011;37084;55.228;36.450;2023-02-24T09:19:23;10.85;;;4.38;;
51048;SDS011;37084;55.228;36.450;2023-02-24T09:22:40;13.50;;;4.78;;
51048;SDS011;37084;55.228;36.450;2023-02-24T09:25:55;6.38;;;3.08;;
51048;SDS011;37084;55.228;36.450;2023-02-24T09:28:56;7.75;;;4.00;;
51048;SDS011;37084;55.228;36.450;2023-02-24T09:31:58;11.88;;;4.93;;
51048;SDS011;37084;55.228;36.450;2023-02-24T09:35:06;14.90;;;8.45;;
51048;SDS011;37084;55.228;36.450;2023-02-24T09:38:08;15.57;;;6.47;;
51048;SDS011;37084;55.228;36.450;2023-02-24T09:41:19;11.85;;;5.05;;
51048;SDS011;37084;55.228;36.450;2023-02-24T09:45:00;11.57;;;5.25;;
51048;SDS011;37084;55.228;36.450;2023-02-24T09:48:08;14.77;;;6.13;;
51048;SDS011;37084;55.228;36.450;2023-02-24T09:51:16;14.07;;;5.43;;
51048;SDS011;37084;55.228;36.450;2023-02-24T09:54:28;12.32;;;4.65;;
51048;SDS011;37084;55.228;36.450;2023-02-24T09:57:31;11.77;;;5.00;;
51048;SDS011;37084;55.228;36.450;2023-02-24T10:04:57;11.15;;;4.50;;
51048;SDS011;37084;55.228;36.450;2023-02-24T10:08:10;16.73;;;6.03;;
51048;SDS011;37084;55.228;36.450;2023-02-24T10:11:17;15.32;;;6.05;;
51048;SDS011;37084;55.228;36.450;2023-02-24T10:17:55;9.32;;;4.28;;
51048;SDS011;37084;55.228;36.450;2023-02-24T10:21:17;8.75;;;4.45;;
51048;SDS011;37084;55.228;36.450;2023-02-24T10:24:46;13.90;;;6.65;;
51048;SDS011;37084;55.228;36.450;2023-02-24T10:31:12;10.68;;;4.35;;
51048;SDS011;37084;55.228;36.450;2023-02-24T10:34:26;14.77;;;5.20;;
51048;SDS011;37084;55.228;36.450;2023-02-24T10:40:43;9.20;;;4.50;;
51048;SDS011;37084;55.228;36.450;2023-02-24T10:43:56;9.88;;;4.40;;
51048;SDS011;37084;55.228;36.450;2023-02-24T10:46:58;8.00;;;3.88;;
51048;SDS011;37084;55.228;36.450;2023-02-24T10:50:17;10.60;;;5.07;;
51048;SDS011;37084;55.228;36.450;2023-02-24T10:53:26;11.27;;;5.20;;
51048;SDS011;37084;55.228;36.450;2023-02-24T10:56:41;11.70;;;7.15;;
51048;SDS011;37084;55.228;36.450;2023-02-24T10:59:45;13.93;;;5.30;;
51048;SDS011;37084;55.228;36.450;2023-02-24T11:03:06;11.35;;;4.95;;
51048;SDS011;37084;55.228;36.450;2023-02-24T11:06:18;16.10;;;6.28;;
51048;SDS011;37084;55.228;36.450;2023-02-24T11:09:41;12.75;;;5.82;;
51048;SDS011;37084;55.228;36.450;2023-02-24T11:13:11;12.60;;;6.00;;
51048;SDS011;37084;55.228;36.450;2023-02-24T11:16:41;10.32;;;5.18;;
51048;SDS011;37084;55.228;36.450;2023-02-24T11:20:10;12.98;;;5.53;;
51048;SDS011;37084;55.228;36.450;2023-02-24T11:23:19;10.77;;;5.82;;
51048;SDS011;37084;55.228;36.450;2023-02-24T11:29:41;9.60;;;4.18;;
51048;SDS011;37084;55.228;36.450;2023-02-24T11:36:31;8.35;;;4.15;;
51048;SDS011;37084;55.228;36.450;2023-02-24T11:39:44;10.85;;;5.93;;
51048;SDS011;37084;55.228;36.450;2023-02-24T11:45:56;11.90;;;5.82;;
51048;SDS011;37084;55.228;36.450;2023-02-24T11:49:00;15.70;;;6.32;;
51048;SDS011;37084;55.228;36.450;2023-02-24T11:52:03;7.60;;;3.60;;
51048;SDS011;37084;55.228;36.450;2023-02-24T11:55:19;11.75;;;5.75;;
51048;SDS011;37084;55.228;36.450;2023-02-24T11:59:04;15.13;;;5.97;;
51048;SDS011;37084;55.228;36.450;2023-02-24T12:02:14;15.80;;;5.90;;
51048;SDS011;37084;55.228;36.450;2023-02-24T12:05:21;9.05;;;5.00;;
51048;SDS011;37084;55.228;36.450;2023-02-24T12:08:50;8.90;;;3.97;;
51048;SDS011;37084;55.228;36.450;2023-02-24T12:12:08;13.32;;;5.05;;
51048;SDS011;37084;55.228;36.450;2023-02-24T12:15:21;8.85;;;6.90;;
51048;SDS011;37084;55.228;36.450;2023-02-24T12:18:25;16.55;;;5.25;;
51048;SDS011;37084;55.228;36.450;2023-02-24T12:21:35;12.40;;;5.82;;
51048;SDS011;37084;55.228;36.450;2023-02-24T12:24:44;14.10;;;6.30;;
51048;SDS011;37084;55.228;36.450;2023-02-24T12:27:58;11.00;;;5.88;;
51048;SDS011;37084;55.228;36.450;2023-02-24T12:31:18;13.07;;;5.70;;
51048;SDS011;37084;55.228;36.450;2023-02-24T12:37:47;12.75;;;5.60;;
51048;SDS011;37084;55.228;36.450;2023-02-24T12:41:49;13.88;;;5.43;;
51048;SDS011;37084;55.228;36.450;2023-02-24T12:48:16;15.25;;;6.32;;
51048;SDS011;37084;55.228;36.450;2023-02-24T12:51:35;17.70;;;7.07;;
51048;SDS011;37084;55.228;36.450;2023-02-24T12:58:16;13.35;;;5.32;;
51048;SDS011;37084;55.228;36.450;2023-02-24T13:01:26;16.27;;;6.97;;
51048;SDS011;37084;55.228;36.450;2023-02-24T13:08:24;14.75;;;5.47;;
51048;SDS011;37084;55.228;36.450;2023-02-24T13:15:22;12.20;;;5.07;;
51048;SDS011;37084;55.228;36.450;2023-02-24T13:18:26;14.15;;;6.82;;
51048;SDS011;37084;55.228;36.450;2023-02-24T13:21:32;12.20;;;4.53;;
51048;SDS011;37084;55.228;36.450;2023-02-24T13:24:34;11.80;;;4.95;;
51048;SDS011;37084;55.228;36.450;2023-02-24T13:27:36;13.38;;;5.18;;
51048;SDS011;37084;55.228;36.450;2023-02-24T13:30:42;13.65;;;6.25;;
51048;SDS011;37084;55.228;36.450;2023-02-24T13:33:44;17.88;;;6.43;;
51048;SDS011;37084;55.228;36.450;2023-02-24T13:36:48;12.75;;;5.28;;
51048;SDS011;37084;55.228;36.450;2023-02-24T13:39:50;10.32;;;3.65;;
51048;SDS011;37084;55.228;36.450;2023-02-24T13:46:00;17.40;;;6.25;;
51048;SDS011;37084;55.228;36.450;2023-02-24T13:55:59;15.98;;;6.68;;
51048;SDS011;37084;55.228;36.450;2023-02-24T14:02:21;17.00;;;6.07;;
51048;SDS011;37084;55.228;36.450;2023-02-24T14:05:28;13.35;;;6.53;;
51048;SDS011;37084;55.228;36.450;2023-02-24T14:08:40;13.65;;;6.70;;
51048;SDS011;37084;55.228;36.450;2023-02-24T14:11:44;14.88;;;6.18;;
51048;SDS011;37084;55.228;36.450;2023-02-24T14:14:45;10.15;;;3.83;;
51048;SDS011;37084;55.228;36.450;2023-02-24T14:17:54;12.90;;;6.03;;
51048;SDS011;37084;55.228;36.450;2023-02-24T14:20:59;15.05;;;6.45;;
51048;SDS011;37084;55.228;36.450;2023-02-24T14:24:01;15.73;;;6.00;;
51048;SDS011;37084;55.228;36.450;2023-02-24T14:27:04;14.25;;;6.60;;
51048;SDS011;37084;55.228;36.450;2023-02-24T14:30:06;13.55;;;6.05;;
51048;SDS011;37084;55.228;36.450;2023-02-24T14:33:26;13.40;;;5.30;;
51048;SDS011;37084;55.228;36.450;2023-02-24T14:36:38;13.32;;;6.40;;
51048;SDS011;37084;55.228;36.450;2023-02-24T14:39:50;20.77;;;7.65;;
51048;SDS011;37084;55.228;36.450;2023-02-24T14:43:05;16.08;;;6.90;;
51048;SDS011;37084;55.228;36.450;2023-02-24T14:46:14;18.23;;;6.65;;
51048;SDS011;37084;55.228;36.450;2023-02-24T14:49:17;16.08;;;6.47;;
51048;SDS011;37084;55.228;36.450;2023-02-24T14:52:31;15.68;;;7.35;;
51048;SDS011;37084;55.228;36.450;2023-02-24T14:55:35;23.67;;;8.63;;
51048;SDS011;37084;55.228;36.450;2023-02-24T14:58:47;18.65;;;8.45;;
51048;SDS011;37084;55.228;36.450;2023-02-24T15:01:51;16.48;;;6.55;;
51048;SDS011;37084;55.228;36.450;2023-02-24T15:04:53;17.65;;;7.35;;
51048;SDS011;37084;55.228;36.450;2023-02-24T15:07:56;18.42;;;6.85;;
51048;SDS011;37084;55.228;36.450;2023-02-24T15:10:58;18.52;;;7.65;;
51048;SDS011;37084;55.228;36.450;2023-02-24T15:14:03;19.90;;;6.95;;
51048;SDS011;37084;55.228;36.450;2023-02-24T15:17:09;15.60;;;6.85;;
51048;SDS011;37084;55.228;36.450;2023-02-24T15:20:57;21.98;;;8.27;;
51048;SDS011;37084;55.228;36.450;2023-02-24T15:23:43;21.60;;;8.07;;
51048;SDS011;37084;55.228;36.450;2023-02-24T15:26:53;18.42;;;8.27;;
51048;SDS011;37084;55.228;36.450;2023-02-24T15:30:04;19.23;;;8.27;;
51048;SDS011;37084;55.228;36.450;2023-02-24T15:33:19;16.33;;;6.80;;
51048;SDS011;37084;55.228;36.450;2023-02-24T15:36:23;18.42;;;7.82;;
51048;SDS011;37084;55.228;36.450;2023-02-24T15:39:27;20.17;;;8.18;;
51048;SDS011;37084;55.228;36.450;2023-02-24T15:42:31;20.20;;;8.27;;
51048;SDS011;37084;55.228;36.450;2023-02-24T15:45:35;21.60;;;8.55;;
51048;SDS011;37084;55.228;36.450;2023-02-24T15:48:39;23.40;;;9.07;;
51048;SDS011;37084;55.228;36.450;2023-02-24T15:51:43;19.50;;;7.95;;
51048;SDS011;37084;55.228;36.450;2023-02-24T15:54:45;17.98;;;8.00;;
51048;SDS011;37084;55.228;36.450;2023-02-24T15:57:47;21.10;;;6.75;;
51048;SDS011;37084;55.228;36.450;2023-02-24T16:00:56;22.92;;;8.10;;
51048;SDS011;37084;55.228;36.450;2023-02-24T16:03:58;17.08;;;6.22;;
51048;SDS011;37084;55.228;36.450;2023-02-24T16:06:59;19.75;;;7.32;;
51048;SDS011;37084;55.228;36.450;2023-02-24T16:10:01;18.30;;;7.05;;
51048;SDS011;37084;55.228;36.450;2023-02-24T16:13:03;16.48;;;6.60;;
51048;SDS011;37084;55.228;36.450;2023-02-24T16:16:05;19.55;;;7.35;;
51048;SDS011;37084;55.228;36.450;2023-02-24T16:19:07;11.30;;;4.55;;
51048;SDS011;37084;55.228;36.450;2023-02-24T16:22:10;19.52;;;7.68;;
51048;SDS011;37084;55.228;36.450;2023-02-24T16:25:13;23.20;;;9.02;;
51048;SDS011;37084;55.228;36.450;2023-02-24T16:28:17;25.00;;;10.07;;
51048;SDS011;37084;55.228;36.450;2023-02-24T16:31:20;24.27;;;11.30;;
51048;SDS011;37084;55.228;36.450;2023-02-24T16:34:22;25.73;;;9.40;;
51048;SDS011;37084;55.228;36.450;2023-02-24T16:37:27;29.10;;;10.25;;
51048;SDS011;37084;55.228;36.450;2023-02-24T16:40:32;30.42;;;11.73;;
51048;SDS011;37084;55.228;36.450;2023-02-24T16:43:37;23.63;;;9.05;;
51048;SDS011;37084;55.228;36.450;2023-02-24T16:46:38;21.88;;;9.10;;
51048;SDS011;37084;55.228;36.450;2023-02-24T16:49:41;23.42;;;9.18;;
51048;SDS011;37084;55.228;36.450;2023-02-24T16:52:42;23.75;;;10.85;;
51048;SDS011;37084;55.228;36.450;2023-02-24T16:55:44;21.25;;;8.30;;
51048;SDS011;37084;55.228;36.450;2023-02-24T16:58:46;22.42;;;8.70;;
51048;SDS011;37084;55.228;36.450;2023-02-24T17:01:47;21.92;;;7.63;;
51048;SDS011;37084;55.228;36.450;2023-02-24T17:04:48;16.27;;;5.50;;
51048;SDS011;37084;55.228;36.450;2023-02-24T17:07:50;23.30;;;8.38;;
51048;SDS011;37084;55.228;36.450;2023-02-24T17:10:54;24.58;;;8.10;;
51048;SDS011;37084;55.228;36.450;2023-02-24T17:13:55;21.77;;;8.63;;
51048;SDS011;37084;55.228;36.450;2023-02-24T17:16:57;26.15;;;9.80;;
51048;SDS011;37084;55.228;36.450;2023-02-24T17:19:58;21.83;;;8.57;;
51048;SDS011;37084;55.228;36.450;2023-02-24T17:22:59;23.75;;;8.88;;
51048;SDS011;37084;55.228;36.450;2023-02-24T17:26:01;21.90;;;8.95;;
51048;SDS011;37084;55.228;36.450;2023-02-24T17:29:03;17.45;;;6.80;;
51048;SDS011;37084;55.228;36.450;2023-02-24T17:32:05;19.80;;;8.07;;
51048;SDS011;37084;55.228;36.450;2023-02-24T17:35:07;19.33;;;8.50;;
51048;SDS011;37084;55.228;36.450;2023-02-24T17:38:18;25.88;;;11.00;;
51048;SDS011;37084;55.228;36.450;2023-02-24T17:41:22;24.00;;;9.38;;
51048;SDS011;37084;55.228;36.450;2023-02-24T17:44:24;17.83;;;6.60;;
51048;SDS011;37084;55.228;36.450;2023-02-24T17:47:26;23.80;;;8.20;;
51048;SDS011;37084;55.228;36.450;2023-02-24T17:50:27;21.25;;;8.25;;
51048;SDS011;37084;55.228;36.450;2023-02-24T17:53:28;20.98;;;8.18;;
51048;SDS011;37084;55.228;36.450;2023-02-24T17:56:30;20.00;;;8.52;;
51048;SDS011;37084;55.228;36.450;2023-02-24T17:59:32;21.27;;;8.50;;
51048;SDS011;37084;55.228;36.450;2023-02-24T18:02:33;20.30;;;7.25;;
51048;SDS011;37084;55.228;36.450;2023-02-24T18:05:35;17.73;;;7.05;;
51048;SDS011;37084;55.228;36.450;2023-02-24T18:08:36;20.60;;;7.85;;
51048;SDS011;37084;55.228;36.450;2023-02-24T18:11:38;17.48;;;7.18;;
51048;SDS011;37084;55.228;36.450;2023-02-24T18:14:39;16.95;;;6.57;;
51048;SDS011;37084;55.228;36.450;2023-02-24T18:17:41;15.13;;;6.18;;
51048;SDS011;37084;55.228;36.450;2023-02-24T18:20:42;21.67;;;8.40;;
51048;SDS011;37084;55.228;36.450;2023-02-24T18:23:44;18.67;;;7.70;;
51048;SDS011;37084;55.228;36.450;2023-02-24T18:26:45;19.90;;;7.68;;
51048;SDS011;37084;55.228;36.450;2023-02-24T18:29:46;20.10;;;7.03;;
51048;SDS011;37084;55.228;36.450;2023-02-24T18:32:48;16.33;;;6.28;;
51048;SDS011;37084;55.228;36.450;2023-02-24T18:36:00;14.13;;;5.50;;
51048;SDS011;37084;55.228;36.450;2023-02-24T18:39:02;20.13;;;6.68;;
51048;SDS011;37084;55.228;36.450;2023-02-24T18:42:03;15.23;;;6.28;;
51048;SDS011;37084;55.228;36.450;2023-02-24T18:45:05;14.35;;;6.22;;
51048;SDS011;37084;55.228;36.450;2023-02-24T18:48:06;16.65;;;6.78;;
51048;SDS011;37084;55.228;36.450;2023-02-24T18:51:08;21.05;;;7.95;;
51048;SDS011;37084;55.228;36.450;2023-02-24T18:54:09;17.75;;;7.63;;
51048;SDS011;37084;55.228;36.450;2023-02-24T18:57:11;20.17;;;7.20;;
51048;SDS011;37084;55.228;36.450;2023-02-24T19:00:13;21.23;;;8.20;;
51048;SDS011;37084;55.228;36.450;2023-02-24T19:03:15;17.15;;;7.10;;
51048;SDS011;37084;55.228;36.450;2023-02-24T19:06:16;21.60;;;8.07;;
51048;SDS011;37084;55.228;36.450;2023-02-24T19:09:18;19.90;;;7.47;;
51048;SDS011;37084;55.228;36.450;2023-02-24T19:12:21;17.13;;;7.32;;
51048;SDS011;37084;55.228;36.450;2023-02-24T19:15:23;16.75;;;6.70;;
51048;SDS011;37084;55.228;36.450;2023-02-24T19:18:27;21.30;;;7.65;;
51048;SDS011;37084;55.228;36.450;2023-02-24T19:21:29;21.83;;;7.70;;
51048;SDS011;37084;55.228;36.450;2023-02-24T19:24:31;21.77;;;7.25;;
51048;SDS011;37084;55.228;36.450;2023-02-24T19:27:33;16.75;;;6.80;;
51048;SDS011;37084;55.228;36.450;2023-02-24T19:30:37;17.40;;;6.85;;
51048;SDS011;37084;55.228;36.450;2023-02-24T19:33:39;17.90;;;7.40;;
51048;SDS011;37084;55.228;36.450;2023-02-24T19:36:40;19.33;;;7.60;;
51048;SDS011;37084;55.228;36.450;2023-02-24T19:39:41;15.50;;;7.18;;
51048;SDS011;37084;55.228;36.450;2023-02-24T19:42:42;16.58;;;6.88;;
51048;SDS011;37084;55.228;36.450;2023-02-24T19:45:47;14.30;;;6.05;;
51048;SDS011;37084;55.228;36.450;2023-02-24T19:48:48;14.38;;;6.20;;
51048;SDS011;37084;55.228;36.450;2023-02-24T19:51:56;18.65;;;6.35;;
51048;SDS011;37084;55.228;36.450;2023-02-24T19:54:58;14.98;;;5.75;;
51048;SDS011;37084;55.228;36.450;2023-02-24T19:57:59;14.43;;;6.65;;